Time;durP1;ratioP1;P1;durP2;ratioP2;P2;SDS_P1;SDS_P2;PMS_P1;PMS_P2;Temp;Humidity;BMP_temperature;BMP_pressure;BME280_temperature;BME280_humidity;BME280_pressure;Samples;Min_cycle;Max_cycle;Signal;HPM_P1;HPM_P2
2024/01/16 00:02:14;;;;;;;12.43;11.33;;;;;;;20.26;27.34;93500.66;6158041;28;110259;-56
2024/01/16 00:05:17;;;;;;;12.10;10.90;;;;;;;20.26;27.10;93505.19;6158750;28;109283;-56
2024/01/16 00:08:22;;;;;;;11.63;10.53;;;;;;;20.26;27.34;93521.91;6147340;28;110350;-56
2024/01/16 00:11:25;;;;;;;11.93;10.83;;;;;;;20.26;27.44;93540.50;6157782;28;109157;-56
2024/01/16 00:14:28;;;;;;;11.00;9.90;;;;;;;20.25;27.26;93524.91;6158776;28;109307;-56
2024/01/16 00:17:31;;;;;;;11.77;10.43;;;;;;;20.26;27.38;93535.19;6152150;28;110161;-56
2024/01/16 00:20:34;;;;;;;11.27;10.07;;;;;;;20.25;27.42;93533.66;6153523;28;109186;-55
2024/01/16 00:23:39;;;;;;;10.90;9.90;;;;;;;20.26;27.42;93539.72;6158496;28;109112;-55
2024/01/16 00:26:42;;;;;;;11.13;10.03;;;;;;;20.29;27.48;93547.81;6158265;28;110046;-55
2024/01/16 00:29:46;;;;;;;11.30;10.20;;;;;;;20.30;27.32;93517.47;6146626;28;110795;-55
2024/01/16 00:32:49;;;;;;;10.87;9.90;;;;;;;20.30;27.26;93525.44;6157333;28;109153;-55
2024/01/16 00:35:52;;;;;;;11.40;10.30;;;;;;;20.37;27.22;93526.81;6158057;28;109069;-55
2024/01/16 00:38:56;;;;;;;11.10;9.80;;;;;;;20.41;27.11;93555.03;6157288;28;110581;-55
2024/01/16 00:42:00;;;;;;;11.03;9.93;;;;;;;20.42;27.30;93531.88;6146421;28;109221;-55
2024/01/16 00:45:03;;;;;;;11.40;10.30;;;;;;;20.44;27.30;93561.56;6156446;28;109331;-55
2024/01/16 00:48:06;;;;;;;10.40;9.30;;;;;;;20.44;27.36;93561.56;6157647;28;110200;-55
2024/01/16 00:51:09;;;;;;;9.83;8.83;;;;;;;20.44;27.42;93572.97;6155876;28;109683;-55
2024/01/16 00:54:14;;;;;;;10.33;9.33;;;;;;;20.41;27.74;93560.34;6149563;28;110160;-55
2024/01/16 00:57:19;;;;;;;10.00;9.00;;;;;;;20.42;27.54;93550.50;6157186;28;110315;-55
2024/01/16 01:00:22;;;;;;;10.80;9.70;;;;;;;20.41;27.61;93573.63;6157135;28;109280;-55
2024/01/16 01:03:25;;;;;;;9.63;8.73;;;;;;;20.40;27.83;93603.19;6146632;28;109064;-55
2024/01/16 01:06:28;;;;;;;9.60;8.70;;;;;;;20.39;27.74;93567.88;6156597;28;109194;-55
2024/01/16 01:09:34;;;;;;;9.97;8.97;;;;;;;20.39;27.79;93588.34;6156744;28;110477;-55
2024/01/16 01:12:37;;;;;;;9.60;8.70;;;;;;;20.40;27.87;93576.63;6157822;28;110258;-54
2024/01/16 01:15:41;;;;;;;10.07;9.17;;;;;;;20.46;27.81;93599.97;6145781;28;110030;-55
2024/01/16 01:18:44;;;;;;;9.73;8.60;;;;;;;20.47;27.73;93584.81;6145748;28;109498;-55
2024/01/16 01:21:47;;;;;;;9.40;8.50;;;;;;;20.48;27.71;93583.69;6156770;28;109068;-55
2024/01/16 01:24:51;;;;;;;9.80;8.20;;;;;;;20.48;27.78;93592.44;6156575;28;109230;-55
2024/01/16 01:27:54;;;;;;;9.70;8.70;;;;;;;20.49;27.70;93606.50;6146374;28;109142;-55
2024/01/16 01:30:57;;;;;;;9.43;8.47;;;;;;;20.49;27.53;93593.22;6157200;28;110268;-55
2024/01/16 01:34:00;;;;;;;8.70;7.90;;;;;;;20.48;27.66;93584.47;6157662;28;109046;-55
2024/01/16 01:37:04;;;;;;;8.67;7.77;;;;;;;20.49;27.71;93575.38;6151985;28;110284;-55
2024/01/16 01:40:12;;;;;;;9.20;8.30;;;;;;;20.50;27.48;93568.19;6152447;28;110307;-55
2024/01/16 01:43:19;;;;;;;7.90;7.10;;;;;;;20.49;27.61;93579.94;6143966;28;109149;-55
2024/01/16 01:46:22;;;;;;;10.80;7.90;;;;;;;20.68;27.39;93587.38;6152379;28;109172;-51
2024/01/16 01:49:27;;;;;;;8.87;7.97;;;;;;;20.87;27.26;93561.03;6144447;28;109284;-51
2024/01/16 01:52:31;;;;;;;8.57;7.50;;;;;;;20.97;26.77;93583.69;6155907;28;109040;-50
2024/01/16 01:55:37;;;;;;;7.80;7.10;;;;;;;21.03;26.65;93571.75;6154916;28;109111;-50
2024/01/16 01:58:41;;;;;;;8.50;7.70;;;;;;;21.06;26.66;93579.09;6154088;28;110721;-51
2024/01/16 02:01:46;;;;;;;8.23;7.30;;;;;;;21.08;26.55;93584.84;6144633;28;109273;-50
2024/01/16 02:04:50;;;;;;;8.30;7.50;;;;;;;21.10;26.50;93583.41;6156759;28;110618;-50
2024/01/16 02:07:53;;;;;;;7.70;7.00;;;;;;;21.12;26.60;93585.72;6157111;28;110061;-51
2024/01/16 02:10:57;;;;;;;8.07;7.27;;;;;;;21.13;26.67;93573.97;6150923;28;109992;-51
2024/01/16 02:14:00;;;;;;;8.27;7.47;;;;;;;21.12;26.76;93577.75;6154381;28;110232;-51
2024/01/16 02:17:04;;;;;;;8.43;7.63;;;;;;;21.13;26.34;93604.00;6159792;28;109639;-51
2024/01/16 02:20:08;;;;;;;6.93;6.27;;;;;;;21.14;26.50;93597.56;6159450;28;110148;-51
2024/01/16 02:23:13;;;;;;;8.40;7.60;;;;;;;21.13;26.61;93585.38;6148839;28;110324;-51
2024/01/16 02:26:18;;;;;;;7.60;6.90;;;;;;;21.16;26.35;93605.97;6149457;28;109205;-51
2024/01/16 02:29:21;;;;;;;7.67;6.97;;;;;;;21.17;26.17;93598.78;6143949;28;109114;-50
2024/01/16 02:32:24;;;;;;;7.23;6.53;;;;;;;21.17;26.15;93609.41;6159672;28;109234;-50
2024/01/16 02:35:28;;;;;;;7.83;7.13;;;;;;;21.17;26.40;93609.41;6150524;28;110380;-50
2024/01/16 02:38:31;;;;;;;8.23;7.50;;;;;;;21.18;26.19;93600.34;6160508;28;110257;-51
2024/01/16 02:41:35;;;;;;;7.30;6.60;;;;;;;21.17;26.33;93618.19;6138808;28;110311;-54
2024/01/16 02:44:40;;;;;;;7.87;7.10;;;;;;;21.21;26.30;93636.94;6158615;28;110308;-54
2024/01/16 02:47:43;;;;;;;7.13;6.43;;;;;;;21.17;26.72;93623.53;6151315;28;109471;-54
2024/01/16 02:50:47;;;;;;;7.03;6.37;;;;;;;21.20;26.30;93624.72;6159557;28;109113;-54
2024/01/16 02:53:51;;;;;;;7.00;6.40;;;;;;;21.23;26.37;93639.25;6160105;28;109063;-53
2024/01/16 02:56:55;;;;;;;7.60;6.80;;;;;;;21.24;26.38;93646.91;6125745;28;109545;-53
2024/01/16 02:59:58;;;;;;;7.80;7.00;;;;;;;21.21;26.37;93668.84;6158538;28;110066;-54
2024/01/16 03:03:01;;;;;;;7.03;6.33;;;;;;;21.21;26.11;93674.16;6160279;28;110548;-54
2024/01/16 03:06:05;;;;;;;7.70;6.57;;;;;;;21.24;26.31;93707.31;6160215;28;109100;-54
2024/01/16 03:09:08;;;;;;;7.53;6.83;;;;;;;21.26;26.17;93711.19;6148224;28;109113;-53
2024/01/16 03:12:13;;;;;;;9.03;6.50;;;;;;;21.26;26.19;93724.50;6159946;28;109168;-53
2024/01/16 03:15:16;;;;;;;7.20;6.50;;;;;;;21.29;26.24;93723.81;6159407;28;109204;-54
2024/01/16 03:18:19;;;;;;;7.30;6.40;;;;;;;21.27;26.27;93730.59;6157974;28;110172;-53
2024/01/16 03:21:23;;;;;;;6.93;6.33;;;;;;;21.27;26.32;93742.00;6147838;28;109032;-54
2024/01/16 03:24:26;;;;;;;7.40;6.17;;;;;;;21.27;26.21;93746.53;6160119;28;109617;-54
2024/01/16 03:27:30;;;;;;;7.17;6.40;;;;;;;21.31;26.23;93761.50;6152768;28;109971;-53
2024/01/16 03:30:33;;;;;;;6.73;6.13;;;;;;;21.29;26.34;93771.72;6153941;28;110094;-53
2024/01/16 03:33:41;;;;;;;6.50;5.90;;;;;;;21.28;26.18;93775.47;6153895;28;110070;-54
2024/01/16 03:36:45;;;;;;;6.83;6.23;;;;;;;21.29;26.27;93786.91;6159012;28;110187;-54
2024/01/16 03:39:50;;;;;;;6.33;5.73;;;;;;;21.26;26.42;93783.03;6157760;28;109301;-53
2024/01/16 03:42:54;;;;;;;6.80;6.10;;;;;;;21.26;26.23;93804.31;6148364;28;111505;-54
2024/01/16 03:45:58;;;;;;;6.37;5.60;;;;;;;21.28;26.24;93815.38;6159288;28;109791;-53
2024/01/16 03:49:01;;;;;;;5.83;5.33;;;;;;;21.26;26.38;93827.47;6154981;28;109234;-54
2024/01/16 03:52:05;;;;;;;6.50;5.90;;;;;;;21.26;26.26;93832.78;6159508;28;109196;-51
2024/01/16 03:55:08;;;;;;;7.30;6.60;;;;;;;21.23;26.27;93831.56;6147876;28;109209;-52
2024/01/16 03:58:12;;;;;;;6.07;5.47;;;;;;;21.25;26.46;93839.22;6157760;28;110265;-52
2024/01/16 04:01:16;;;;;;;6.30;5.70;;;;;;;21.24;26.69;93843.78;6156681;28;109445;-52
2024/01/16 04:04:19;;;;;;;6.30;5.70;;;;;;;21.21;26.56;93853.19;6152814;28;109097;-51
2024/01/16 04:07:26;;;;;;;5.83;5.30;;;;;;;21.24;26.57;93865.06;6152369;28;109181;-51
2024/01/16 04:10:29;;;;;;;6.17;5.57;;;;;;;21.24;26.62;93865.06;6142797;28;109300;-51
2024/01/16 04:13:33;;;;;;;7.10;4.80;;;;;;;21.15;26.43;93885.63;6153455;28;109154;-52
2024/01/16 04:16:36;;;;;;;5.30;4.80;;;;;;;21.09;27.27;93889.59;6147469;28;110562;-50
2024/01/16 04:19:39;;;;;;;5.43;4.93;;;;;;;21.24;27.04;93904.97;6157777;28;109393;-51
2024/01/16 04:22:42;;;;;;;10.60;9.10;;;;;;;21.21;27.76;93903.75;6157463;28;110373;-53
2024/01/16 04:25:45;;;;;;;8.23;6.77;;;;;;;21.08;27.24;93910.09;6160281;28;110216;-52
2024/01/16 04:28:50;;;;;;;7.67;6.97;;;;;;;21.09;27.62;93908.22;6146250;28;111195;-52
2024/01/16 04:31:53;;;;;;;7.53;6.83;;;;;;;21.17;27.56;93905.50;6164425;28;109151;-52
2024/01/16 04:34:56;;;;;;;8.13;7.43;;;;;;;21.22;27.62;93917.81;6147733;28;111428;-52
2024/01/16 04:37:59;;;;;;;7.00;6.30;;;;;;;21.28;27.45;93929.03;6162484;28;110261;-54
2024/01/16 04:41:02;;;;;;;6.93;6.27;;;;;;;21.23;27.43;93923.91;6148351;28;110285;-51
2024/01/16 04:44:07;;;;;;;6.40;5.70;;;;;;;21.19;27.59;93937.09;6157744;28;109166;-52
2024/01/16 04:47:10;;;;;;;6.17;5.37;;;;;;;21.25;28.05;93937.66;6157257;28;110590;-52
2024/01/16 04:50:14;;;;;;;6.60;6.00;;;;;;;21.20;28.08;93938.66;6152938;28;110550;-52
2024/01/16 04:53:17;;;;;;;5.03;4.63;;;;;;;21.21;27.96;93951.63;6151815;28;110226;-55
2024/01/16 04:56:20;;;;;;;5.80;4.60;;;;;;;21.23;28.14;93959.28;6160956;28;109070;-55
2024/01/16 04:59:25;;;;;;;4.87;4.37;;;;;;;21.27;28.81;93965.50;6161395;28;110098;-54
2024/01/16 05:02:28;;;;;;;6.00;4.43;;;;;;;21.24;28.69;93984.78;6165378;28;110476;-55
2024/01/16 05:05:31;;;;;;;4.53;4.13;;;;;;;21.23;28.69;93991.22;6161243;28;109525;-55
2024/01/16 05:08:34;;;;;;;7.53;4.17;;;;;;;21.31;28.88;93997.53;6157436;28;109128;-55
2024/01/16 05:11:37;;;;;;;4.67;3.67;;;;;;;21.33;29.20;94001.44;6157406;28;110105;-54
2024/01/16 05:14:42;;;;;;;6.10;3.97;;;;;;;21.36;29.26;94011.44;6147207;28;110384;-53
2024/01/16 05:17:45;;;;;;;6.73;3.30;;;;;;;21.32;29.78;94023.84;6157519;28;108948;-54
2024/01/16 05:20:48;;;;;;;4.13;3.40;;;;;;;21.14;29.91;94031.16;6157950;28;110479;-55
2024/01/16 05:23:52;;;;;;;4.47;2.73;;;;;;;21.10;29.70;94029.47;6153425;28;109160;-54
2024/01/16 05:26:55;;;;;;;3.97;2.80;;;;;;;21.02;29.79;94046.25;6151294;28;109797;-54
2024/01/16 05:30:00;;;;;;;3.07;2.77;;;;;;;20.87;29.70;94043.06;6157698;28;110097;-54
2024/01/16 05:33:03;;;;;;;4.30;2.87;;;;;;;20.77;29.96;94062.03;6143716;28;109072;-54
2024/01/16 05:36:07;;;;;;;4.40;2.17;;;;;;;20.72;29.94;94064.09;6147515;28;109139;-55
2024/01/16 05:39:11;;;;;;;3.13;2.67;;;;;;;20.67;30.00;94065.06;6157430;28;110496;-55
2024/01/16 05:42:14;;;;;;;3.23;2.40;;;;;;;20.65;29.80;94074.44;6157424;28;110430;-55
2024/01/16 05:45:19;;;;;;;2.40;1.97;;;;;;;20.65;29.76;94091.16;6159079;28;109380;-55
2024/01/16 05:48:22;;;;;;;2.67;2.33;;;;;;;20.61;29.85;94087.59;6150336;28;109267;-55
2024/01/16 05:51:27;;;;;;;2.63;2.03;;;;;;;20.61;29.60;94100.88;6161901;28;112922;-55
2024/01/16 05:54:30;;;;;;;2.03;1.83;;;;;;;20.61;29.58;94119.50;6161529;28;109303;-55
2024/01/16 05:57:33;;;;;;;2.00;1.60;;;;;;;20.64;29.58;94137.44;6161864;28;109418;-55
2024/01/16 06:00:39;;;;;;;2.13;1.67;;;;;;;20.62;29.17;94144.97;6150656;28;110312;-55
2024/01/16 06:03:45;;;;;;;2.20;1.73;;;;;;;20.61;29.49;94162.00;6161247;28;109538;-55
2024/01/16 06:06:48;;;;;;;1.97;1.80;;;;;;;20.62;29.32;94171.56;6161191;28;109345;-55
2024/01/16 06:09:51;;;;;;;2.37;1.60;;;;;;;20.61;29.27;94186.72;6154089;28;109431;-56
2024/01/16 06:12:54;;;;;;;2.00;1.80;;;;;;;20.60;29.26;94181.72;6159086;28;110268;-56
2024/01/16 06:15:59;;;;;;;2.60;1.70;;;;;;;20.57;29.18;94193.78;6160109;28;109271;-56
2024/01/16 06:19:02;;;;;;;2.60;1.73;;;;;;;20.58;29.15;94207.84;6160972;28;109629;-56
2024/01/16 06:22:06;;;;;;;1.97;1.50;;;;;;;20.55;29.22;94211.13;6150520;28;109209;-56
2024/01/16 06:25:09;;;;;;;2.43;1.60;;;;;;;20.55;29.05;94221.75;6160637;28;109647;-56
2024/01/16 06:28:12;;;;;;;2.00;1.57;;;;;;;20.54;28.95;94231.63;6161411;28;110326;-56
2024/01/16 06:31:17;;;;;;;2.00;1.40;;;;;;;20.53;28.85;94229.28;6161120;28;110488;-56
2024/01/16 06:34:20;;;;;;;1.83;1.37;;;;;;;20.50;29.22;94241.31;6149692;28;110372;-56
2024/01/16 06:37:23;;;;;;;2.63;1.53;;;;;;;20.50;29.08;94243.97;6160627;28;110180;-56
2024/01/16 06:40:26;;;;;;;1.60;1.40;;;;;;;20.51;29.06;94263.38;6160797;28;110119;-56
2024/01/16 06:43:29;;;;;;;2.30;1.50;;;;;;;20.48;29.10;94278.03;6155457;28;109338;-56
2024/01/16 06:46:34;;;;;;;1.53;1.30;;;;;;;20.49;28.94;94284.91;6154448;28;109077;-56
2024/01/16 06:49:37;;;;;;;1.60;1.40;;;;;;;20.48;28.91;94286.00;6160747;28;110260;-56
2024/01/16 06:52:41;;;;;;;1.93;1.73;;;;;;;20.48;28.92;94298.50;6160175;28;109062;-56
2024/01/16 06:55:43;;;;;;;2.23;1.50;;;;;;;20.47;28.82;94304.94;6149879;28;109079;-56
2024/01/16 06:58:46;;;;;;;1.70;1.10;;;;;;;20.46;28.85;94306.03;6160379;28;109276;-56
2024/01/16 07:01:51;;;;;;;2.03;1.40;;;;;;;20.45;28.85;94317.75;6160297;28;110110;-56
2024/01/16 07:04:54;;;;;;;1.70;1.37;;;;;;;20.44;28.75;94326.81;6136077;28;109562;-56
2024/01/16 07:08:01;;;;;;;1.60;1.20;;;;;;;20.42;28.87;94323.69;6126292;28;111024;-56
2024/01/16 07:11:07;;;;;;;1.53;1.10;;;;;;;20.42;28.57;94339.63;6136173;28;109160;-56
2024/01/16 07:14:10;;;;;;;1.70;1.30;;;;;;;20.40;28.64;94328.53;6135919;28;108945;-56
2024/01/16 07:17:15;;;;;;;1.93;1.30;;;;;;;20.39;28.61;94348.25;6135491;28;110232;-56
2024/01/16 07:20:18;;;;;;;1.70;1.10;;;;;;;20.39;28.38;94356.22;6125544;28;109047;-55
2024/01/16 07:23:21;;;;;;;1.60;1.20;;;;;;;20.40;28.60;94360.44;6135748;28;110079;-56
2024/01/16 07:26:25;;;;;;;2.80;1.10;;;;;;;20.39;28.60;94377.47;6135752;28;109312;-56
2024/01/16 07:29:28;;;;;;;2.00;1.70;;;;;;;20.58;29.66;94381.38;6127294;28;109485;-56
2024/01/16 07:32:32;;;;;;;1.60;1.30;;;;;;;20.51;28.55;94385.63;6140235;28;109809;-56
2024/01/16 07:35:36;;;;;;;1.63;0.90;;;;;;;20.46;28.60;94385.75;6159955;28;109496;-56
2024/01/16 07:38:39;;;;;;;1.77;1.30;;;;;;;20.43;28.44;94395.13;6159157;28;109117;-56
2024/01/16 07:41:42;;;;;;;1.80;1.17;;;;;;;20.43;28.26;94399.66;6137446;28;110413;-56
2024/01/16 07:44:45;;;;;;;1.67;1.23;;;;;;;20.42;28.41;94398.09;6135283;28;109204;-55
2024/01/16 07:47:50;;;;;;;1.97;1.27;;;;;;;20.40;28.58;94400.28;6135015;28;109461;-56
2024/01/16 07:50:53;;;;;;;3.83;1.17;;;;;;;20.39;28.39;94396.84;6135247;28;109151;-56
2024/01/16 07:54:06;;;;;;;2.00;1.20;;;;;;;20.36;28.25;94408.09;6123782;28;109179;-56
2024/01/16 07:57:09;;;;;;;1.77;1.17;;;;;;;20.36;28.48;94415.28;6135252;28;110324;-56
2024/01/16 08:00:13;;;;;;;2.23;1.20;;;;;;;20.36;28.43;94429.34;6157916;28;110104;-56
2024/01/16 08:03:17;;;;;;;1.40;1.00;;;;;;;20.36;28.25;94444.53;6153755;28;110581;-56
2024/01/16 08:06:21;;;;;;;1.50;1.20;;;;;;;20.35;28.34;94462.34;6153405;28;111001;-55
2024/01/16 08:09:25;;;;;;;1.30;0.87;;;;;;;20.36;28.21;94463.91;6158036;28;109131;-55
2024/01/16 08:12:28;;;;;;;1.43;1.00;;;;;;;20.36;28.24;94474.53;6159074;28;110201;-55
2024/01/16 08:15:31;;;;;;;1.70;1.30;;;;;;;20.37;28.34;94475.31;6148887;28;109575;-55
2024/01/16 08:18:35;;;;;;;1.70;1.37;;;;;;;20.39;28.19;94470.47;6158741;28;110462;-54
2024/01/16 08:21:39;;;;;;;1.80;1.20;;;;;;;20.44;28.23;94486.25;6159015;28;110594;-55
2024/01/16 08:24:42;;;;;;;2.57;1.30;;;;;;;20.41;28.09;94489.53;6154085;28;109113;-56
2024/01/16 08:27:45;;;;;;;1.50;1.13;;;;;;;20.41;28.09;94492.97;6124296;28;109195;-55
2024/01/16 08:30:48;;;;;;;1.60;1.00;;;;;;;20.40;28.23;94498.59;6135114;28;110183;-55
2024/01/16 08:33:55;;;;;;;1.97;1.00;;;;;;;20.39;28.06;94499.69;6149479;28;109246;-55
2024/01/16 08:36:59;;;;;;;1.60;1.07;;;;;;;20.40;28.25;94507.38;6154362;28;109072;-55
2024/01/16 08:40:03;;;;;;;1.40;1.00;;;;;;;20.39;28.09;94518.31;6152324;28;109287;-55
2024/01/16 08:43:06;;;;;;;1.50;1.13;;;;;;;20.39;27.90;94527.06;6158410;28;109178;-55
2024/01/16 08:46:09;;;;;;;1.27;0.80;;;;;;;20.36;27.93;94525.03;6158296;28;109121;-54
2024/01/16 08:49:13;;;;;;;1.50;1.07;;;;;;;20.33;28.13;94530.91;6147902;28;108777;-54
2024/01/16 08:52:21;;;;;;;4.00;1.80;;;;;;;20.34;28.13;94537.03;6158363;28;110212;-55
2024/01/16 08:55:24;;;;;;;3.10;2.00;;;;;;;20.34;28.26;94545.03;6157981;28;109267;-55
2024/01/16 08:58:27;;;;;;;2.50;1.97;;;;;;;20.35;28.16;94551.91;6157984;28;109452;-55
2024/01/16 09:01:30;;;;;;;1.80;1.47;;;;;;;20.35;28.08;94551.91;6147016;28;110001;-55
2024/01/16 09:04:35;;;;;;;2.20;1.70;;;;;;;20.39;28.07;94574.09;6157572;28;109297;-55
2024/01/16 09:07:38;;;;;;;1.90;1.57;;;;;;;20.38;28.03;94573.31;6157916;28;109335;-55
2024/01/16 09:10:41;;;;;;;1.90;1.70;;;;;;;20.37;28.04;94568.31;6157536;28;109394;-55
2024/01/16 09:13:44;;;;;;;2.00;1.60;;;;;;;20.39;27.75;94563.47;6147360;28;110236;-55
2024/01/16 09:16:47;;;;;;;4.10;1.43;;;;;;;20.39;27.90;94568.78;6157012;28;109317;-55
2024/01/16 09:19:52;;;;;;;2.30;1.60;;;;;;;20.38;27.74;94570.66;6160782;28;109676;-55
2024/01/16 09:22:55;;;;;;;1.80;1.30;;;;;;;20.45;27.80;94571.00;6156732;28;109241;-55
2024/01/16 09:25:58;;;;;;;1.80;1.50;;;;;;;20.54;27.73;94576.38;6156685;28;108917;-55
2024/01/16 09:29:01;;;;;;;2.00;1.10;;;;;;;20.59;27.65;94566.38;6162219;28;110391;-55
2024/01/16 09:32:05;;;;;;;2.37;1.60;;;;;;;20.61;27.64;94571.38;6160927;28;109327;-55
2024/01/16 09:35:11;;;;;;;3.00;1.90;;;;;;;20.65;27.66;94582.16;6128723;28;110177;-55
2024/01/16 09:38:14;;;;;;;2.30;1.70;;;;;;;20.58;27.89;94588.72;6137651;28;109122;-55
2024/01/16 09:41:17;;;;;;;2.00;1.50;;;;;;;20.60;28.15;94585.75;6137253;28;109162;-55
2024/01/16 09:44:20;;;;;;;1.90;1.50;;;;;;;20.58;27.92;94574.66;6137617;28;110167;-55
2024/01/16 09:47:24;;;;;;;2.03;1.40;;;;;;;20.61;28.08;94571.38;6144757;28;109284;-54
2024/01/16 09:50:28;;;;;;;1.97;1.60;;;;;;;20.60;28.09;94583.88;6161833;28;109183;-55
2024/01/16 09:53:32;;;;;;;1.87;1.50;;;;;;;20.57;28.25;94587.16;6161402;28;109300;-55
2024/01/16 09:56:40;;;;;;;2.30;1.30;;;;;;;20.51;28.30;94593.72;6147450;28;109416;-54
2024/01/16 09:59:45;;;;;;;1.70;1.43;;;;;;;20.50;28.34;94591.34;6130101;28;109210;-54
2024/01/16 10:02:48;;;;;;;2.40;1.27;;;;;;;20.47;28.20;94589.28;6142964;28;110225;-54
2024/01/16 10:05:52;;;;;;;3.03;1.40;;;;;;;20.48;28.43;94590.84;6149507;28;109082;-55
2024/01/16 10:08:55;;;;;;;2.17;1.63;;;;;;;20.47;28.47;94582.09;6126491;28;110232;-55
2024/01/16 10:12:00;;;;;;;2.10;1.33;;;;;;;20.48;28.50;94590.84;6136947;28;109067;-55
2024/01/16 10:15:04;;;;;;;2.17;1.50;;;;;;;20.45;28.40;94589.59;6136667;28;110061;-55
2024/01/16 10:18:24;;;;;;;1.70;1.30;;;;;;;20.45;28.50;94584.28;6137219;28;109210;-55
2024/01/16 10:21:32;;;;;;;2.67;1.47;;;;;;;20.46;28.42;94585.06;6125866;28;110047;-55
2024/01/16 10:24:35;;;;;;;2.67;1.40;;;;;;;20.45;28.26;94584.28;6137086;28;110139;-55
2024/01/16 10:27:40;;;;;;;2.07;0.90;;;;;;;20.47;28.30;94594.59;6136925;28;109784;-55
2024/01/16 10:30:43;;;;;;;2.47;1.27;;;;;;;20.48;28.27;94591.63;6139040;28;108829;-55
2024/01/16 10:33:46;;;;;;;1.63;1.13;;;;;;;20.48;28.30;94588.97;6152814;28;110143;-55
2024/01/16 10:36:59;;;;;;;2.00;1.43;;;;;;;20.50;28.06;94591.34;6160886;28;110129;-55
2024/01/16 10:40:02;;;;;;;2.30;1.40;;;;;;;20.51;28.17;94603.56;6140469;28;110235;-55
2024/01/16 10:43:06;;;;;;;2.60;1.53;;;;;;;20.50;28.13;94599.31;6126659;28;109335;-55
2024/01/16 10:46:11;;;;;;;2.50;1.43;;;;;;;20.51;28.12;94614.19;6136427;28;109286;-55
2024/01/16 10:49:15;;;;;;;2.90;1.40;;;;;;;20.51;27.90;94599.03;6136515;28;110154;-55
2024/01/16 10:52:20;;;;;;;2.10;1.17;;;;;;;20.49;27.96;94616.34;6136409;28;109156;-56
2024/01/16 10:55:27;;;;;;;3.50;1.20;;;;;;;20.50;28.02;94609.94;6125318;28;109155;-56
2024/01/16 10:58:31;;;;;;;4.40;1.30;;;;;;;20.47;27.87;94607.91;6135757;28;109205;-56
2024/01/16 11:01:35;;;;;;;1.83;1.33;;;;;;;20.47;28.10;94597.25;6148966;28;109176;-56
2024/01/16 11:04:39;;;;;;;1.70;1.13;;;;;;;20.46;28.04;94601.78;6160442;28;110171;-56
2024/01/16 11:07:45;;;;;;;2.40;1.30;;;;;;;20.45;28.07;94594.91;6150554;28;109848;-56
2024/01/16 11:10:50;;;;;;;2.67;1.00;;;;;;;20.46;28.11;94607.13;6159484;28;109354;-56
2024/01/16 11:13:53;;;;;;;2.80;1.60;;;;;;;20.47;27.78;94602.59;6159797;28;109128;-56
2024/01/16 11:16:57;;;;;;;1.87;1.30;;;;;;;20.49;27.85;94614.47;6150482;28;110299;-55
2024/01/16 11:20:05;;;;;;;2.23;1.30;;;;;;;20.50;27.68;94625.88;6160106;28;108955;-56
2024/01/16 11:23:30;;;;;;;5.47;1.40;;;;;;;20.53;27.61;94633.28;6160024;28;111565;-56
2024/01/16 11:26:36;;;;;;;3.13;1.33;;;;;;;20.52;27.57;94619.19;6159436;28;109063;-56
2024/01/16 11:29:40;;;;;;;1.77;1.10;;;;;;;20.53;27.87;94623.44;6135480;28;110436;-56
2024/01/16 11:32:44;;;;;;;1.53;1.30;;;;;;;20.54;27.57;94625.00;6139801;28;109985;-56
2024/01/16 11:35:47;;;;;;;2.07;1.53;;;;;;;20.55;27.77;94631.09;6159761;28;109120;-56
2024/01/16 11:38:57;;;;;;;2.90;1.67;;;;;;;20.55;27.63;94623.13;6144126;28;109166;-56
2024/01/16 11:42:02;;;;;;;3.70;1.70;;;;;;;20.55;27.65;94618.59;6127860;28;109168;-57
2024/01/16 11:45:07;;;;;;;2.13;1.50;;;;;;;20.53;27.68;94627.97;6135271;28;109072;-56
2024/01/16 11:48:10;;;;;;;4.50;1.63;;;;;;;20.51;27.66;94625.59;6135133;28;110124;-57
2024/01/16 11:51:42;;;;;;;2.70;1.70;;;;;;;20.51;27.86;94622.94;6125728;28;109149;-57
2024/01/16 11:54:46;;;;;;;2.03;1.63;;;;;;;20.51;27.51;94630.94;6133239;28;109214;-57
2024/01/16 11:58:14;;;;;;;2.73;1.70;;;;;;;20.49;27.77;94637.59;6134788;28;110180;-56
2024/01/16 12:01:20;;;;;;;1.77;1.50;;;;;;;20.49;27.59;94640.25;6135166;28;110287;-56
2024/01/16 12:04:23;;;;;;;1.77;1.30;;;;;;;20.49;27.35;94637.59;6140754;28;110106;-57
2024/01/16 12:07:26;;;;;;;2.80;1.10;;;;;;;20.51;27.70;94640.78;6159037;28;109088;-56
2024/01/16 12:10:31;;;;;;;2.20;1.40;;;;;;;20.52;27.48;94643.13;6158808;28;110788;-56
2024/01/16 12:13:34;;;;;;;5.07;1.80;;;;;;;20.52;27.58;94659.06;6153619;28;110152;-56
2024/01/16 12:16:37;;;;;;;2.03;1.50;;;;;;;20.53;27.34;94662.50;6152388;28;109147;-57
2024/01/16 12:19:42;;;;;;;4.67;1.80;;;;;;;20.56;27.39;94661.91;6159597;28;110323;-57
2024/01/16 12:22:46;;;;;;;7.87;1.90;;;;;;;20.53;27.45;94657.97;6159088;28;110252;-56
2024/01/16 12:25:54;;;;;;;2.90;1.70;;;;;;;20.51;27.46;94662.03;6148247;28;109145;-56
2024/01/16 12:29:06;;;;;;;2.63;1.57;;;;;;;20.48;27.49;94665.28;6158887;28;110300;-56
2024/01/16 12:32:09;;;;;;;2.57;1.80;;;;;;;20.47;27.54;94664.50;6158524;28;109269;-57
2024/01/16 12:35:13;;;;;;;3.83;1.70;;;;;;;20.47;27.41;94667.16;6158452;28;109099;-56
2024/01/16 12:38:19;;;;;;;4.33;1.80;;;;;;;20.46;27.49;94675.44;6148257;28;109306;-57
2024/01/16 12:41:25;;;;;;;2.77;1.70;;;;;;;20.44;27.42;94673.09;6158694;28;108871;-57
2024/01/16 12:44:41;;;;;;;4.10;2.07;;;;;;;20.44;27.47;94674.94;6158612;28;109454;-57
2024/01/16 12:47:45;;;;;;;2.47;1.77;;;;;;;20.43;27.57;94687.47;6151562;28;109140;-56
2024/01/16 12:50:48;;;;;;;4.40;1.63;;;;;;;20.44;27.46;94689.03;6155734;28;109074;-57
2024/01/16 12:53:51;;;;;;;4.10;1.70;;;;;;;20.46;27.45;94700.13;6157709;28;109342;-57
2024/01/16 12:57:00;;;;;;;2.60;1.63;;;;;;;20.46;27.40;94694.81;6158145;28;109059;-57
2024/01/16 13:00:22;;;;;;;15.17;3.47;;;;;;;20.47;27.24;94690.28;6147532;28;110649;-57
2024/01/16 13:03:26;;;;;;;17.33;3.23;;;;;;;20.48;27.45;94683.88;6158208;28;110407;-57
2024/01/16 13:06:29;;;;;;;13.60;2.93;;;;;;;20.49;27.35;94685.44;6157973;28;109440;-57
2024/01/16 13:09:32;;;;;;;12.37;2.87;;;;;;;20.48;27.34;94683.88;6158240;28;109066;-57
2024/01/16 13:12:37;;;;;;;10.70;2.73;;;;;;;20.47;27.31;94685.75;6147379;28;110128;-56
2024/01/16 13:15:40;;;;;;;9.87;2.23;;;;;;;20.45;27.32;94679.97;6157202;28;109287;-55
2024/01/16 13:18:43;;;;;;;25.33;3.83;;;;;;;20.48;27.37;94697.16;6158044;28;110352;-56
2024/01/16 13:21:47;;;;;;;23.33;3.53;;;;;;;20.46;27.25;94700.13;6152383;28;110632;-55
2024/01/16 13:24:50;;;;;;;19.50;2.93;;;;;;;20.47;27.27;94703.56;6153593;28;109170;-55
2024/01/16 13:28:08;;;;;;;13.23;2.77;;;;;;;20.45;27.38;94711.84;6157676;28;110053;-55
2024/01/16 13:31:11;;;;;;;8.27;2.70;;;;;;;20.46;27.20;94712.63;6157634;28;110401;-55
2024/01/16 13:34:17;;;;;;;9.60;2.50;;;;;;;20.45;27.42;94706.53;6146619;28;110311;-55
2024/01/16 13:37:22;;;;;;;11.80;2.33;;;;;;;20.46;27.33;94707.31;6157557;28;109189;-55
2024/01/16 13:40:26;;;;;;;9.23;2.40;;;;;;;20.47;27.33;94712.34;6158098;28;110463;-55
2024/01/16 13:43:30;;;;;;;10.47;2.57;;;;;;;20.48;27.24;94715.78;6157477;28;108803;-55
2024/01/16 13:46:33;;;;;;;6.60;2.17;;;;;;;20.49;27.19;94723.44;6146441;28;109162;-55
2024/01/16 13:49:56;;;;;;;11.27;3.10;;;;;;;20.52;27.34;94727.41;6157014;28;108907;-55
2024/01/16 13:52:59;;;;;;;10.93;2.47;;;;;;;20.51;27.30;94725.81;6139316;28;110417;-55
2024/01/16 13:56:02;;;;;;;6.90;2.60;;;;;;;20.51;27.30;94723.94;6124508;28;110265;-55
2024/01/16 13:59:07;;;;;;;6.50;2.50;;;;;;;20.50;27.26;94721.56;6132779;28;110092;-56
2024/01/16 14:02:10;;;;;;;3.73;1.73;;;;;;;20.49;27.21;94720.78;6150656;28;109777;-55
2024/01/16 14:05:15;;;;;;;7.47;2.47;;;;;;;20.49;27.16;94733.28;6157996;28;110131;-56
2024/01/16 14:08:18;;;;;;;7.03;1.97;;;;;;;20.52;27.24;94725.53;6149912;28;109004;-56
2024/01/16 14:11:21;;;;;;;6.17;1.90;;;;;;;20.48;27.22;94729.84;6143493;28;109136;-56
2024/01/16 14:14:26;;;;;;;5.10;1.83;;;;;;;20.47;27.17;94732.81;6137090;28;109163;-55
2024/01/16 14:17:29;;;;;;;5.13;2.13;;;;;;;20.43;27.31;94737.16;6144071;28;110481;-56